createdAt,value
2019-02-11T00:00:26.387Z,6.16
2019-02-11T00:01:26.399Z,6.15
2019-02-11T00:02:26.414Z,6.15
2019-02-11T00:03:26.431Z,6.07
2019-02-11T00:04:26.444Z,6.02
2019-02-11T00:05:26.454Z,6.09
2019-02-11T00:06:26.469Z,5.94
2019-02-11T00:07:26.485Z,5.91
2019-02-11T00:08:26.499Z,5.95
2019-02-11T00:09:26.512Z,5.92
2019-02-11T00:10:26.531Z,5.81
2019-02-11T00:11:26.539Z,5.84
2019-02-11T00:12:26.555Z,5.88
2019-02-11T00:13:26.569Z,5.74
2019-02-11T00:14:26.580Z,5.77
2019-02-11T00:15:26.593Z,5.70
2019-02-11T00:16:26.606Z,5.74
2019-02-11T00:17:26.621Z,5.70
2019-02-11T00:18:26.635Z,5.67
2019-02-11T00:19:26.649Z,5.54
2019-02-11T00:20:26.659Z,5.59
2019-02-11T00:21:26.676Z,5.59
2019-02-11T00:22:26.689Z,5.54
2019-02-11T00:23:26.701Z,5.46
2019-02-11T00:24:26.723Z,5.51
2019-02-11T00:25:26.727Z,5.33
2019-02-11T00:26:26.741Z,5.40
2019-02-11T00:27:26.755Z,5.34
2019-02-11T00:28:26.769Z,5.25
2019-02-11T00:29:26.782Z,5.25
2019-02-11T00:30:26.794Z,5.19
2019-02-11T00:31:26.890Z,5.26
2019-02-11T00:32:26.820Z,5.20
2019-02-11T00:33:26.833Z,5.25
2019-02-11T00:34:26.850Z,5.20
2019-02-11T00:35:26.859Z,5.16
2019-02-11T00:36:26.874Z,5.13
2019-02-11T00:37:26.885Z,5.20
2019-02-11T00:38:26.901Z,5.16
2019-02-11T00:39:26.915Z,5.16
2019-02-11T00:40:26.927Z,5.13
2019-02-11T00:41:26.939Z,5.12
2019-02-11T00:42:26.955Z,5.07
2019-02-11T00:43:26.965Z,5.07
2019-02-11T00:44:26.980Z,5.10
2019-02-11T00:45:26.993Z,5.07
2019-02-11T00:46:27.005Z,5.08
2019-02-11T00:47:27.018Z,5.01
2019-02-11T00:48:27.033Z,5.01
2019-02-11T00:49:27.045Z,5.01
2019-02-11T00:50:27.062Z,5.05
2019-02-11T00:51:27.072Z,4.92
2019-02-11T00:52:27.086Z,4.95
2019-02-11T00:53:27.099Z,4.92
2019-02-11T00:54:27.110Z,4.92
2019-02-11T00:55:27.125Z,4.90
2019-02-11T00:56:27.136Z,4.92
2019-02-11T00:57:27.153Z,4.83
2019-02-11T00:58:27.162Z,4.89
2019-02-11T00:59:27.175Z,4.84
2019-02-11T01:00:27.192Z,4.75
2019-02-11T01:01:27.202Z,4.68
2019-02-11T01:02:27.214Z,4.78
2019-02-11T01:03:27.228Z,4.75
2019-02-11T01:04:27.239Z,4.70
2019-02-11T01:05:27.253Z,4.61
2019-02-11T01:06:27.270Z,4.66
2019-02-11T01:07:27.327Z,4.64
2019-02-11T01:08:27.290Z,4.57
2019-02-11T01:09:27.313Z,4.58
2019-02-11T01:10:27.413Z,4.56
2019-02-11T01:11:27.411Z,4.50
2019-02-11T01:12:27.400Z,4.57
2019-02-11T01:13:28.044Z,4.46
2019-02-11T01:14:27.407Z,4.49
2019-02-11T01:15:27.451Z,4.48
2019-02-11T01:16:27.460Z,4.43
2019-02-11T01:17:27.465Z,4.43
2019-02-11T01:18:27.465Z,4.43
2019-02-11T01:19:27.467Z,4.32
2019-02-11T01:20:27.462Z,4.36
2019-02-11T01:21:27.459Z,4.34
2019-02-11T01:22:27.470Z,4.36
2019-02-11T01:23:27.486Z,4.25
2019-02-11T01:24:27.498Z,4.25
2019-02-11T01:25:27.512Z,4.25
2019-02-11T01:26:27.520Z,4.09
2019-02-11T01:27:27.537Z,4.12
2019-02-11T01:28:27.549Z,4.13
2019-02-11T01:29:27.560Z,4.06
2019-02-11T01:30:27.574Z,4.03
2019-02-11T01:31:27.585Z,3.99
2019-02-11T01:32:27.600Z,3.89
2019-02-11T01:33:27.608Z,3.89
2019-02-11T01:34:27.624Z,3.96
2019-02-11T01:35:27.635Z,3.78
2019-02-11T01:36:27.649Z,3.76
2019-02-11T01:37:27.657Z,3.77
2019-02-11T01:38:27.673Z,3.78
2019-02-11T01:39:27.684Z,3.74
2019-02-11T01:40:27.695Z,3.70
2019-02-11T01:41:27.709Z,3.64
2019-02-11T01:42:27.720Z,3.61
2019-02-11T01:43:35.785Z,3.53
2019-02-11T01:44:27.746Z,3.43
2019-02-11T01:45:27.755Z,3.48
2019-02-11T01:46:27.770Z,3.41
2019-02-11T01:47:27.781Z,3.41
2019-02-11T01:48:27.794Z,3.36
2019-02-11T01:49:27.803Z,3.37
2019-02-11T01:50:27.822Z,3.24
2019-02-11T01:51:27.829Z,3.33
2019-02-11T01:52:27.842Z,3.24
2019-02-11T01:53:27.854Z,3.22
2019-02-11T01:54:27.864Z,3.12
2019-02-11T01:55:27.877Z,3.13
2019-02-11T01:56:27.888Z,3.06
2019-02-11T01:57:27.901Z,3.11
2019-02-11T01:58:27.909Z,3.01
2019-02-11T01:59:27.922Z,3.00
2019-02-11T02:00:27.941Z,3.05
2019-02-11T02:01:27.946Z,2.91
2019-02-11T02:02:27.960Z,2.88
2019-02-11T02:03:27.969Z,2.95
2019-02-11T02:04:27.981Z,2.88
2019-02-11T02:05:27.991Z,2.87
2019-02-11T02:06:28.007Z,2.97
2019-02-11T02:07:28.017Z,2.85
2019-02-11T02:08:28.026Z,2.91
2019-02-11T02:09:28.038Z,2.95
2019-02-11T02:10:28.050Z,2.85
2019-02-11T02:11:28.063Z,2.80
2019-02-11T02:12:28.074Z,2.85
2019-02-11T02:13:28.088Z,2.83
2019-02-11T02:14:28.095Z,2.82
2019-02-11T02:15:28.109Z,2.83
2019-02-11T02:16:28.120Z,2.80
2019-02-11T02:17:28.132Z,2.79
2019-02-11T02:18:28.141Z,2.79
2019-02-11T02:19:28.158Z,2.75
2019-02-11T02:20:28.169Z,2.76
2019-02-11T02:21:28.176Z,2.72
2019-02-11T02:22:28.188Z,2.64
2019-02-11T02:23:28.201Z,2.62
2019-02-11T02:24:28.212Z,2.61
2019-02-11T02:25:28.223Z,2.64
2019-02-11T02:26:28.233Z,2.52
2019-02-11T02:27:28.244Z,2.47
2019-02-11T02:28:28.258Z,2.44
2019-02-11T02:29:28.269Z,2.51
2019-02-11T02:30:28.280Z,2.50
2019-02-11T02:31:28.290Z,2.37
2019-02-11T02:32:28.304Z,2.39
2019-02-11T02:33:28.313Z,2.40
2019-02-11T02:34:28.326Z,2.33
2019-02-11T02:35:28.334Z,2.37
2019-02-11T02:36:28.346Z,2.34
2019-02-11T02:37:28.355Z,2.36
2019-02-11T02:38:28.368Z,2.18
2019-02-11T02:39:28.380Z,2.18
2019-02-11T02:40:28.388Z,2.19
2019-02-11T02:41:28.399Z,2.12
2019-02-11T02:42:28.410Z,2.10
2019-02-11T02:43:28.422Z,2.10
2019-02-11T02:44:28.440Z,2.08
2019-02-11T02:45:28.444Z,2.08
2019-02-11T02:46:28.454Z,1.98
2019-02-11T02:47:28.465Z,2.01
2019-02-11T02:48:28.476Z,2.01
2019-02-11T02:49:28.488Z,1.93
2019-02-11T02:50:28.498Z,2.01
2019-02-11T02:51:28.513Z,1.88
2019-02-11T02:52:28.519Z,1.89
2019-02-11T02:53:28.528Z,1.85
2019-02-11T02:54:28.541Z,1.85
2019-02-11T02:55:28.552Z,1.76
2019-02-11T02:56:28.563Z,1.71
2019-02-11T02:57:28.572Z,1.78
2019-02-11T02:58:28.582Z,1.70
2019-02-11T02:59:28.596Z,1.68
2019-02-11T03:00:28.611Z,1.68
2019-02-11T03:01:28.615Z,1.66
2019-02-11T03:02:28.626Z,1.70
2019-02-11T03:03:28.637Z,1.60
2019-02-11T03:04:28.650Z,1.58
2019-02-11T03:05:28.655Z,1.61
2019-02-11T03:06:28.669Z,1.63
2019-02-11T03:07:28.675Z,1.53
2019-02-11T03:08:28.688Z,1.67
2019-02-11T03:09:28.698Z,1.52
2019-02-11T03:10:28.709Z,1.52
2019-02-11T03:11:28.719Z,1.48
2019-02-11T03:12:28.741Z,1.50
2019-02-11T03:13:28.761Z,1.53
2019-02-11T03:14:28.749Z,1.53
2019-02-11T03:15:28.765Z,1.53
2019-02-11T03:16:28.777Z,1.49
2019-02-11T03:17:28.779Z,1.52
2019-02-11T03:18:28.794Z,1.50
2019-02-11T03:19:28.805Z,1.43
2019-02-11T03:20:28.810Z,1.52
2019-02-11T03:21:28.821Z,1.52
2019-02-11T03:22:28.831Z,1.48
2019-02-11T03:23:28.842Z,1.57
2019-02-11T03:24:28.859Z,1.56
2019-02-11T03:25:28.866Z,1.48
2019-02-11T03:26:28.875Z,1.45
2019-02-11T03:27:28.886Z,1.48
2019-02-11T03:28:28.896Z,1.49
2019-02-11T03:29:28.917Z,1.52
2019-02-11T03:30:28.921Z,1.48
2019-02-11T03:31:28.938Z,1.43
2019-02-11T03:32:28.936Z,1.49
2019-02-11T03:33:28.955Z,1.50
2019-02-11T03:34:28.956Z,1.57
2019-02-11T03:35:28.968Z,1.52
2019-02-11T03:36:28.978Z,1.56
2019-02-11T03:37:28.987Z,1.57
2019-02-11T03:38:28.997Z,1.61
2019-02-11T03:39:29.011Z,1.58
2019-02-11T03:40:29.018Z,1.68
2019-02-11T03:41:29.030Z,1.68
2019-02-11T03:42:29.040Z,1.74
2019-02-11T03:43:29.049Z,1.67
2019-02-11T03:44:29.062Z,1.67
2019-02-11T03:45:29.073Z,1.78
2019-02-11T03:46:29.082Z,1.86
2019-02-11T03:47:29.091Z,1.82
2019-02-11T03:48:29.122Z,1.81
2019-02-11T03:49:29.278Z,1.84
2019-02-11T03:50:29.200Z,1.98
2019-02-11T03:51:29.194Z,2.01
2019-02-11T03:52:29.199Z,1.97
2019-02-11T03:53:29.194Z,2.00
2019-02-11T03:54:29.190Z,2.04
2019-02-11T03:55:29.253Z,2.04
2019-02-11T03:56:29.272Z,2.16
2019-02-11T03:57:29.247Z,2.16
2019-02-11T03:58:29.243Z,2.19
2019-02-11T03:59:29.264Z,2.26
2019-02-11T04:00:29.257Z,2.36
2019-02-11T04:01:29.258Z,2.37
2019-02-11T04:02:29.252Z,2.39
2019-02-11T04:03:29.261Z,2.47
2019-02-11T04:04:29.272Z,2.47
2019-02-11T04:05:29.283Z,2.64
2019-02-11T04:06:29.292Z,2.52
2019-02-11T04:07:29.302Z,2.61
2019-02-11T04:08:29.316Z,2.72
2019-02-11T04:09:29.324Z,2.73
2019-02-11T04:10:29.337Z,2.79
2019-02-11T04:11:29.346Z,2.87
2019-02-11T04:12:29.359Z,2.87
2019-02-11T04:13:29.370Z,2.82
2019-02-11T04:14:29.380Z,2.98
2019-02-11T04:15:29.390Z,2.87
2019-02-11T04:16:29.401Z,3.08
2019-02-11T04:17:29.418Z,3.05
2019-02-11T04:18:29.425Z,2.98
2019-02-11T04:19:29.440Z,3.00
2019-02-11T04:20:29.445Z,3.08
2019-02-11T04:21:29.457Z,3.05
2019-02-11T04:22:29.469Z,3.06
2019-02-11T04:23:29.480Z,3.11
2019-02-11T04:24:29.491Z,3.13
2019-02-11T04:25:29.503Z,3.26
2019-02-11T04:26:29.515Z,3.24
2019-02-11T04:27:29.525Z,3.24
2019-02-11T04:28:29.535Z,3.26
2019-02-11T04:29:29.549Z,3.29
2019-02-11T04:30:29.558Z,3.30
2019-02-11T04:31:29.625Z,3.40
2019-02-11T04:32:29.582Z,3.37
2019-02-11T04:33:29.592Z,3.36
2019-02-11T04:34:29.602Z,3.41
2019-02-11T04:35:29.615Z,3.46
2019-02-11T04:36:29.627Z,3.50
2019-02-11T04:37:29.645Z,3.52
2019-02-11T04:38:29.652Z,3.53
2019-02-11T04:39:29.665Z,3.48
2019-02-11T04:40:29.675Z,3.52
2019-02-11T04:41:29.686Z,3.45
2019-02-11T04:42:29.697Z,3.53
2019-02-11T04:43:29.710Z,3.55
2019-02-11T04:44:34.087Z,3.64
2019-02-11T04:45:29.735Z,3.66
2019-02-11T04:46:29.789Z,3.67
2019-02-11T04:47:29.753Z,3.63
2019-02-11T04:48:29.767Z,3.56
2019-02-11T04:49:29.779Z,3.52
2019-02-11T04:50:29.793Z,3.58
2019-02-11T04:51:29.800Z,3.61
2019-02-11T04:52:29.814Z,3.66
2019-02-11T04:53:29.823Z,3.67
2019-02-11T04:54:29.853Z,3.68
2019-02-11T04:55:29.846Z,3.61
2019-02-11T04:56:29.859Z,3.67
2019-02-11T04:57:29.870Z,3.64
2019-02-11T04:58:29.882Z,3.64
2019-02-11T04:59:29.892Z,3.71
2019-02-11T05:00:29.906Z,3.63
2019-02-11T05:01:29.919Z,3.66
2019-02-11T05:02:29.940Z,3.67
2019-02-11T05:03:29.945Z,3.66
2019-02-11T05:04:29.955Z,3.63
2019-02-11T05:05:29.964Z,3.70
2019-02-11T05:06:29.976Z,3.66
2019-02-11T05:07:29.988Z,3.64
2019-02-11T05:08:30.006Z,3.67
2019-02-11T05:09:30.013Z,3.58
2019-02-11T05:10:30.023Z,3.63
2019-02-11T05:11:30.036Z,3.73
2019-02-11T05:12:30.045Z,3.71
2019-02-11T05:13:30.057Z,3.73
2019-02-11T05:14:30.070Z,3.76
2019-02-11T05:15:30.080Z,3.68
2019-02-11T05:16:30.094Z,3.77
2019-02-11T05:17:30.104Z,3.71
2019-02-11T05:18:30.116Z,3.78
2019-02-11T05:19:30.131Z,3.82
2019-02-11T05:20:30.146Z,3.84
2019-02-11T05:21:30.158Z,3.74
2019-02-11T05:22:30.165Z,3.78
2019-02-11T05:23:30.178Z,3.84
2019-02-11T05:24:30.189Z,3.74
2019-02-11T05:25:30.200Z,3.84
2019-02-11T05:26:30.212Z,3.84
2019-02-11T05:27:30.337Z,3.77
2019-02-11T05:28:30.235Z,3.81
2019-02-11T05:29:30.251Z,3.85
2019-02-11T05:30:30.261Z,3.94
2019-02-11T05:31:32.534Z,3.81
2019-02-11T05:32:30.285Z,3.81
2019-02-11T05:33:30.315Z,3.84
2019-02-11T05:34:30.308Z,3.84
2019-02-11T05:35:30.321Z,3.89
2019-02-11T05:36:30.338Z,3.86
2019-02-11T05:37:30.344Z,3.88
2019-02-11T05:38:30.353Z,3.95
2019-02-11T05:39:30.376Z,3.84
2019-02-11T05:40:30.382Z,3.92
2019-02-11T05:41:30.396Z,3.86
2019-02-11T05:42:30.404Z,3.91
2019-02-11T05:43:30.416Z,3.95
2019-02-11T05:44:30.430Z,3.92
2019-02-11T05:45:30.439Z,3.89
2019-02-11T05:46:30.454Z,3.89
2019-02-11T05:47:30.464Z,3.91
2019-02-11T05:48:30.475Z,3.92
2019-02-11T05:49:30.489Z,3.99
2019-02-11T05:50:30.504Z,4.06
2019-02-11T05:51:30.512Z,4.02
2019-02-11T05:52:30.526Z,4.02
2019-02-11T05:53:30.537Z,3.99
2019-02-11T05:54:30.550Z,4.00
2019-02-11T05:55:30.562Z,4.03
2019-02-11T05:56:30.575Z,4.02
2019-02-11T05:57:30.586Z,3.99
2019-02-11T05:58:30.597Z,4.02
2019-02-11T05:59:30.613Z,3.99
2019-02-11T06:00:30.623Z,4.07
2019-02-11T06:01:30.636Z,4.04
2019-02-11T06:02:30.646Z,4.06
2019-02-11T06:03:30.658Z,4.04
2019-02-11T06:04:30.688Z,4.04
2019-02-11T06:05:30.684Z,4.06
2019-02-11T06:06:30.695Z,4.04
2019-02-11T06:07:30.708Z,4.06
2019-02-11T06:08:30.720Z,4.06
2019-02-11T06:09:30.731Z,4.06
2019-02-11T06:10:30.744Z,4.03
2019-02-11T06:11:30.758Z,4.10
2019-02-11T06:12:30.772Z,4.03
2019-02-11T06:13:30.786Z,4.12
2019-02-11T06:14:30.793Z,4.10
2019-02-11T06:15:30.805Z,4.16
2019-02-11T06:16:30.819Z,4.13
2019-02-11T06:17:30.831Z,4.14
2019-02-11T06:18:30.849Z,4.12
2019-02-11T06:19:30.854Z,4.07
2019-02-11T06:20:30.867Z,4.07
2019-02-11T06:21:30.877Z,4.09
2019-02-11T06:22:30.890Z,4.04
2019-02-11T06:23:30.920Z,4.16
2019-02-11T06:24:30.999Z,4.09
2019-02-11T06:25:30.990Z,4.14
2019-02-11T06:26:30.993Z,4.25
2019-02-11T06:27:30.993Z,4.24
2019-02-11T06:28:30.991Z,4.25
2019-02-11T06:29:31.061Z,4.25
2019-02-11T06:30:31.049Z,4.18
2019-02-11T06:31:31.050Z,4.28
2019-02-11T06:32:31.050Z,4.22
2019-02-11T06:33:31.045Z,4.18
2019-02-11T06:34:31.049Z,4.18
2019-02-11T06:35:31.058Z,4.24
2019-02-11T06:36:31.065Z,4.28
2019-02-11T06:37:31.076Z,4.22
2019-02-11T06:38:31.090Z,4.25
2019-02-11T06:39:31.100Z,4.21
2019-02-11T06:40:31.113Z,4.28
2019-02-11T06:41:31.124Z,4.24
2019-02-11T06:42:31.140Z,4.25
2019-02-11T06:43:31.155Z,4.25
2019-02-11T06:44:31.164Z,4.25
2019-02-11T06:45:31.177Z,4.31
2019-02-11T06:46:31.189Z,4.24
2019-02-11T06:47:31.202Z,4.25
2019-02-11T06:48:31.215Z,4.27
2019-02-11T06:49:31.228Z,4.27
2019-02-11T06:50:31.240Z,4.24
2019-02-11T06:51:31.250Z,4.28
2019-02-11T06:52:31.262Z,4.27
2019-02-11T06:53:31.275Z,4.21
2019-02-11T06:54:31.289Z,4.28
2019-02-11T06:55:31.300Z,4.28
2019-02-11T06:56:31.314Z,4.27
2019-02-11T06:57:31.324Z,4.21
2019-02-11T06:58:31.342Z,4.34
2019-02-11T06:59:31.351Z,4.36
2019-02-11T07:00:31.365Z,4.30
2019-02-11T07:01:31.376Z,4.28
2019-02-11T07:02:31.388Z,4.31
2019-02-11T07:03:31.404Z,4.28
2019-02-11T07:04:31.415Z,4.32
2019-02-11T07:05:31.425Z,4.36
2019-02-11T07:06:31.438Z,4.36
2019-02-11T07:07:31.451Z,4.34
2019-02-11T07:08:31.465Z,4.30
2019-02-11T07:09:31.476Z,4.28
2019-02-11T07:10:31.489Z,4.32
2019-02-11T07:11:31.501Z,4.36
2019-02-11T07:12:31.516Z,4.46
2019-02-11T07:13:31.526Z,4.38
2019-02-11T07:14:31.562Z,4.40
2019-02-11T07:15:31.549Z,4.34
2019-02-11T07:16:31.566Z,4.42
2019-02-11T07:17:31.578Z,4.39
2019-02-11T07:18:31.591Z,4.43
2019-02-11T07:19:31.603Z,4.42
2019-02-11T07:20:31.617Z,4.40
2019-02-11T07:21:31.629Z,4.42
2019-02-11T07:22:31.640Z,4.34
2019-02-11T07:23:31.655Z,4.45
2019-02-11T07:24:31.665Z,4.38
2019-02-11T07:25:31.678Z,4.45
2019-02-11T07:26:31.690Z,4.49
2019-02-11T07:27:31.706Z,4.46
2019-02-11T07:28:31.717Z,4.46
2019-02-11T07:29:31.729Z,4.56
2019-02-11T07:30:31.741Z,4.50
2019-02-11T07:31:31.755Z,4.53
2019-02-11T07:32:31.768Z,4.45
2019-02-11T07:33:31.780Z,4.52
2019-02-11T07:34:31.797Z,4.50
2019-02-11T07:35:31.805Z,4.52
2019-02-11T07:36:31.818Z,4.52
2019-02-11T07:37:31.831Z,4.50
2019-02-11T07:38:31.846Z,4.63
2019-02-11T07:39:31.855Z,4.58
2019-02-11T07:40:31.869Z,4.61
2019-02-11T07:41:31.882Z,4.61
2019-02-11T07:42:31.896Z,4.61
2019-02-11T07:43:31.905Z,4.60
2019-02-11T07:44:31.921Z,4.68
2019-02-11T07:45:31.931Z,4.64
2019-02-11T07:46:31.945Z,4.58
2019-02-11T07:47:31.963Z,4.58
2019-02-11T07:48:31.973Z,4.58
2019-02-11T07:49:31.986Z,4.70
2019-02-11T07:50:31.998Z,4.66
2019-02-11T07:51:32.010Z,4.64
2019-02-11T07:52:32.023Z,4.74
2019-02-11T07:53:32.035Z,4.68
2019-02-11T07:54:32.051Z,4.74
2019-02-11T07:55:32.060Z,4.76
2019-02-11T07:56:32.075Z,4.68
2019-02-11T07:57:32.087Z,4.76
2019-02-11T07:58:32.103Z,4.67
2019-02-11T07:59:32.120Z,4.79
2019-02-11T08:00:32.143Z,4.84
2019-02-11T08:01:32.141Z,4.84
2019-02-11T08:02:32.155Z,4.84
2019-02-11T08:03:32.167Z,4.84
2019-02-11T08:04:32.182Z,4.89
2019-02-11T08:05:32.196Z,4.90
2019-02-11T08:06:32.206Z,4.83
2019-02-11T08:07:32.219Z,4.84
2019-02-11T08:08:32.239Z,4.87
2019-02-11T08:09:32.246Z,4.94
2019-02-11T08:10:32.260Z,4.97
2019-02-11T08:11:32.274Z,4.92
2019-02-11T08:12:32.288Z,5.00
2019-02-11T08:13:32.299Z,5.07
2019-02-11T08:14:32.313Z,4.98
2019-02-11T08:15:38.467Z,4.97
2019-02-11T08:16:32.342Z,5.00
2019-02-11T08:17:32.354Z,4.98
2019-02-11T08:18:32.367Z,4.98
2019-02-11T08:19:32.380Z,5.02
2019-02-11T08:20:32.395Z,5.08
2019-02-11T08:21:32.405Z,5.12
2019-02-11T08:22:32.420Z,5.05
2019-02-11T08:23:32.434Z,5.07
2019-02-11T08:24:32.447Z,5.05
2019-02-11T08:25:32.461Z,5.15
2019-02-11T08:26:32.475Z,5.12
2019-02-11T08:27:32.489Z,5.15
2019-02-11T08:28:32.504Z,5.16
2019-02-11T08:29:32.515Z,5.18
2019-02-11T08:30:32.530Z,5.19
2019-02-11T08:31:32.545Z,5.22
2019-02-11T08:32:32.558Z,5.15
2019-02-11T08:33:32.574Z,5.25
2019-02-11T08:34:32.585Z,5.22
2019-02-11T08:35:32.604Z,5.23
2019-02-11T08:36:32.660Z,5.26
2019-02-11T08:37:32.625Z,5.31
2019-02-11T08:38:32.638Z,5.26
2019-02-11T08:39:32.658Z,5.29
2019-02-11T08:40:32.668Z,5.29
2019-02-11T08:41:32.680Z,5.37
2019-02-11T08:42:32.694Z,5.36
2019-02-11T08:43:32.708Z,5.37
2019-02-11T08:44:33.690Z,5.40
2019-02-11T08:45:32.810Z,5.38
2019-02-11T08:46:32.805Z,5.38
2019-02-11T08:47:32.809Z,5.33
2019-02-11T08:48:32.811Z,5.36
2019-02-11T08:49:32.825Z,5.36
2019-02-11T08:50:32.865Z,5.34
2019-02-11T08:51:32.874Z,5.33
2019-02-11T08:52:32.873Z,5.31
2019-02-11T08:53:32.873Z,5.36
2019-02-11T08:54:32.877Z,5.38
2019-02-11T08:55:32.880Z,5.38
2019-02-11T08:56:32.889Z,5.37
2019-02-11T08:57:32.902Z,5.36
2019-02-11T08:58:32.918Z,5.34
2019-02-11T08:59:33.188Z,5.41
2019-02-11T09:00:32.951Z,5.37
2019-02-11T09:01:32.959Z,5.34
2019-02-11T09:02:34.195Z,5.38
2019-02-11T09:03:32.990Z,5.31
2019-02-11T09:04:33.000Z,5.33
2019-02-11T09:05:33.016Z,5.38
2019-02-11T09:06:33.028Z,5.26
2019-02-11T09:07:33.046Z,5.33
2019-02-11T09:08:33.056Z,5.34
2019-02-11T09:09:33.070Z,5.36
2019-02-11T09:10:33.086Z,5.36
2019-02-11T09:11:33.098Z,5.38
2019-02-11T09:12:33.112Z,5.36
2019-02-11T09:13:33.129Z,5.40
2019-02-11T09:14:33.142Z,5.36
2019-02-11T09:15:33.155Z,5.34
2019-02-11T09:16:33.170Z,5.36
2019-02-11T09:17:33.183Z,5.36
2019-02-11T09:18:33.197Z,5.34
2019-02-11T09:19:33.210Z,5.40
2019-02-11T09:20:33.226Z,5.29
2019-02-11T09:21:33.239Z,5.31
2019-02-11T09:22:33.253Z,5.36
2019-02-11T09:23:33.267Z,5.33
2019-02-11T09:24:34.847Z,5.38
2019-02-11T09:25:33.299Z,5.34
2019-02-11T09:26:33.310Z,5.36
2019-02-11T09:27:33.333Z,5.40
2019-02-11T09:28:33.340Z,5.40
2019-02-11T09:29:33.352Z,5.34
2019-02-11T09:30:33.367Z,5.40
2019-02-11T09:31:33.381Z,5.44
2019-02-11T09:32:33.394Z,5.37
2019-02-11T09:33:33.412Z,5.51
2019-02-11T09:34:33.423Z,5.43
2019-02-11T09:35:33.467Z,5.51
2019-02-11T09:36:33.452Z,5.46
2019-02-11T09:37:33.464Z,5.54
2019-02-11T09:38:33.480Z,5.61
2019-02-11T09:39:33.496Z,5.46
2019-02-11T09:40:33.510Z,5.51
2019-02-11T09:41:33.523Z,5.56
2019-02-11T09:42:33.538Z,5.65
2019-02-11T09:43:33.552Z,5.64
2019-02-11T09:44:33.566Z,5.67
2019-02-11T09:45:33.587Z,5.61
2019-02-11T09:46:33.596Z,5.64
2019-02-11T09:47:33.611Z,5.67
2019-02-11T09:48:33.624Z,5.61
2019-02-11T09:49:33.639Z,5.61
2019-02-11T09:50:33.684Z,5.61
2019-02-11T09:51:33.668Z,5.61
2019-02-11T09:52:33.683Z,5.61
2019-02-11T09:53:33.698Z,5.67
2019-02-11T09:54:33.712Z,5.59
2019-02-11T09:55:33.724Z,5.74
2019-02-11T09:56:33.741Z,5.74
2019-02-11T09:57:33.756Z,5.67
2019-02-11T09:58:33.769Z,5.70
2019-02-11T09:59:33.784Z,5.77
2019-02-11T10:00:33.804Z,5.81
2019-02-11T10:01:33.818Z,5.76
2019-02-11T10:02:33.830Z,5.79
2019-02-11T10:03:33.842Z,5.88
2019-02-11T10:04:33.861Z,5.81
2019-02-11T10:05:33.871Z,5.90
2019-02-11T10:06:33.885Z,5.94
2019-02-11T10:07:33.901Z,6.01
2019-02-11T10:08:33.916Z,5.94
2019-02-11T10:09:33.930Z,5.98
2019-02-11T10:10:33.946Z,6.02
2019-02-11T10:11:33.962Z,6.07
2019-02-11T10:12:33.976Z,6.07
2019-02-11T10:13:33.991Z,5.99
2019-02-11T10:14:34.006Z,5.99
2019-02-11T10:15:34.030Z,6.05
2019-02-11T10:16:34.035Z,5.99
2019-02-11T10:17:34.051Z,6.02
2019-02-11T10:18:34.067Z,6.02
2019-02-11T10:19:34.080Z,5.98
2019-02-11T10:20:34.098Z,5.97
2019-02-11T10:21:34.127Z,5.97
2019-02-11T10:22:34.126Z,5.99
2019-02-11T10:23:34.141Z,5.90
2019-02-11T10:24:34.155Z,5.92
2019-02-11T10:25:34.170Z,5.90
2019-02-11T10:26:34.185Z,5.84
2019-02-11T10:27:34.201Z,5.84
2019-02-11T10:28:34.216Z,5.91
2019-02-11T10:29:34.232Z,5.95
2019-02-11T10:30:34.245Z,5.91
2019-02-11T10:31:34.259Z,5.80
2019-02-11T10:32:34.276Z,5.99
2019-02-11T10:33:34.291Z,5.92
2019-02-11T10:34:34.304Z,6.01
2019-02-11T10:35:41.852Z,6.06
2019-02-11T10:36:34.362Z,5.99
2019-02-11T10:37:34.351Z,6.12
2019-02-11T10:38:36.576Z,6.06
2019-02-11T10:39:34.380Z,6.09
2019-02-11T10:40:34.395Z,6.01
2019-02-11T10:41:34.410Z,6.05
2019-02-11T10:42:34.425Z,6.07
2019-02-11T10:43:34.440Z,6.09
2019-02-11T10:44:34.463Z,6.09
2019-02-11T10:45:36.649Z,6.02
2019-02-11T10:46:34.484Z,6.05
2019-02-11T10:47:34.500Z,6.05
2019-02-11T10:48:34.514Z,6.10
2019-02-11T10:49:34.527Z,6.06
2019-02-11T10:50:34.545Z,6.13
2019-02-11T10:51:34.599Z,6.12
2019-02-11T10:52:34.657Z,6.19
2019-02-11T10:53:34.663Z,6.17
2019-02-11T10:54:34.648Z,6.25
2019-02-11T10:55:34.659Z,6.29
2019-02-11T10:56:34.712Z,6.41
2019-02-11T10:57:34.714Z,6.29
2019-02-11T10:58:34.714Z,6.32
2019-02-11T10:59:34.703Z,6.29
2019-02-11T11:00:34.704Z,6.25
2019-02-11T11:01:34.722Z,6.38
2019-02-11T11:02:34.728Z,6.36
2019-02-11T11:03:34.746Z,6.43
2019-02-11T11:04:34.763Z,6.43
2019-02-11T11:05:34.778Z,6.43
2019-02-11T11:06:34.791Z,6.47
2019-02-11T11:07:34.810Z,6.46
2019-02-11T11:08:34.822Z,6.50
2019-02-11T11:09:34.840Z,6.56
2019-02-11T11:10:34.855Z,6.57
2019-02-11T11:11:34.871Z,6.53
2019-02-11T11:12:34.889Z,6.56
2019-02-11T11:13:34.900Z,6.60
2019-02-11T11:14:34.919Z,6.62
2019-02-11T11:15:34.933Z,6.68
2019-02-11T11:16:34.950Z,6.60
2019-02-11T11:17:34.965Z,6.57
2019-02-11T11:18:34.981Z,6.59
2019-02-11T11:19:34.998Z,6.60
2019-02-11T11:20:35.016Z,6.60
2019-02-11T11:21:35.029Z,6.68
2019-02-11T11:22:35.046Z,6.68
2019-02-11T11:23:35.062Z,6.77
2019-02-11T11:24:35.078Z,6.71
2019-02-11T11:25:35.093Z,6.72
2019-02-11T11:26:35.110Z,6.72
2019-02-11T11:27:35.127Z,6.72
2019-02-11T11:28:35.143Z,6.67
2019-02-11T11:29:35.159Z,6.71
2019-02-11T11:30:35.175Z,6.65
2019-02-11T11:31:35.190Z,6.67
2019-02-11T11:32:35.206Z,6.64
2019-02-11T11:33:35.488Z,6.68
2019-02-11T11:34:35.237Z,6.57
2019-02-11T11:35:35.258Z,6.57
2019-02-11T11:36:35.269Z,6.57
2019-02-11T11:37:35.285Z,6.59
2019-02-11T11:38:35.300Z,6.59
2019-02-11T11:39:35.315Z,6.57
2019-02-11T11:40:35.331Z,6.57
2019-02-11T11:41:35.348Z,6.65
2019-02-11T11:42:35.365Z,6.67
2019-02-11T11:43:35.381Z,6.77
2019-02-11T11:44:35.394Z,6.77
2019-02-11T11:45:35.414Z,6.74
2019-02-11T11:46:45.681Z,6.85
2019-02-11T11:47:35.444Z,6.77
2019-02-11T11:48:35.458Z,6.75
2019-02-11T11:49:35.476Z,6.78
2019-02-11T11:50:35.492Z,6.80
2019-02-11T11:51:35.508Z,6.85
2019-02-11T11:52:35.524Z,6.74
2019-02-11T11:53:35.540Z,6.75
2019-02-11T11:54:35.556Z,6.83
2019-02-11T11:55:35.577Z,6.78
2019-02-11T11:56:35.596Z,6.68
2019-02-11T11:57:35.607Z,6.77
2019-02-11T11:58:35.624Z,6.71
2019-02-11T11:59:35.641Z,6.67
2019-02-11T12:00:35.682Z,6.67
2019-02-11T12:01:35.685Z,6.65
2019-02-11T12:02:35.685Z,6.65
2019-02-11T12:03:35.700Z,6.60
2019-02-11T12:04:35.727Z,6.57
2019-02-11T12:05:35.732Z,6.60
2019-02-11T12:06:35.761Z,6.56
2019-02-11T12:07:35.768Z,6.56
2019-02-11T12:08:35.782Z,6.57
2019-02-11T12:09:35.793Z,6.49
2019-02-11T12:10:35.817Z,6.52
2019-02-11T12:11:35.830Z,6.53
2019-02-11T12:12:35.858Z,6.46
2019-02-11T12:13:35.863Z,6.46
2019-02-11T12:14:35.871Z,6.49
2019-02-11T12:15:35.984Z,6.50
2019-02-11T12:16:35.918Z,6.56
2019-02-11T12:17:35.926Z,6.53
2019-02-11T12:18:35.937Z,6.52
2019-02-11T12:19:35.953Z,6.56
2019-02-11T12:20:36.003Z,6.53
2019-02-11T12:21:35.981Z,6.52
2019-02-11T12:22:36.003Z,6.57
2019-02-11T12:23:36.011Z,6.62
2019-02-11T12:24:36.034Z,6.62
2019-02-11T12:25:36.046Z,6.64
2019-02-11T12:26:36.058Z,6.74
2019-02-11T12:27:36.078Z,6.77
2019-02-11T12:28:36.094Z,6.78
2019-02-11T12:29:36.119Z,6.78
2019-02-11T12:30:36.133Z,6.77
2019-02-11T12:31:36.154Z,6.83
2019-02-11T12:32:36.153Z,6.78
2019-02-11T12:33:36.172Z,6.80
2019-02-11T12:34:36.179Z,6.80
2019-02-11T12:35:36.199Z,6.80
2019-02-11T12:36:36.221Z,6.87
2019-02-11T12:37:36.241Z,6.90
2019-02-11T12:38:36.251Z,6.82
2019-02-11T12:39:36.259Z,6.92
2019-02-11T12:40:36.278Z,6.96
2019-02-11T12:41:36.295Z,6.96
2019-02-11T12:42:36.308Z,6.90
2019-02-11T12:43:36.327Z,6.89
2019-02-11T12:44:36.366Z,7.03
2019-02-11T12:45:36.359Z,7.04
2019-02-11T12:46:36.374Z,7.03
2019-02-11T12:47:36.390Z,7.04
2019-02-11T12:48:36.488Z,7.07
2019-02-11T12:49:36.491Z,7.10
2019-02-11T12:50:36.487Z,7.10
2019-02-11T12:51:36.487Z,7.03
2019-02-11T12:52:36.503Z,7.08
2019-02-11T12:53:36.569Z,7.21
2019-02-11T12:54:36.567Z,7.23
2019-02-11T12:55:36.575Z,7.26
2019-02-11T12:56:36.554Z,7.22
2019-02-11T12:57:36.550Z,7.15
2019-02-11T12:58:36.566Z,7.25
2019-02-11T12:59:36.584Z,7.21
2019-02-11T13:00:36.612Z,7.25
2019-02-11T13:01:36.609Z,7.28
2019-02-11T13:02:36.632Z,7.28
2019-02-11T13:03:36.658Z,7.33
2019-02-11T13:04:36.660Z,7.36
2019-02-11T13:05:44.924Z,7.36
2019-02-11T13:06:36.703Z,7.59
2019-02-11T13:07:36.725Z,7.56
2019-02-11T13:08:36.731Z,7.55
2019-02-11T13:09:36.743Z,7.64
2019-02-11T13:10:36.855Z,7.58
2019-02-11T13:11:36.777Z,7.59
2019-02-11T13:12:36.794Z,7.62
2019-02-11T13:13:36.811Z,7.66
2019-02-11T13:14:36.827Z,7.72
2019-02-11T13:15:58.551Z,7.66
2019-02-11T13:16:36.858Z,7.62
2019-02-11T13:17:36.881Z,7.67
2019-02-11T13:18:39.240Z,7.66